createdAt,value
2022-12-03T00:00:34.734Z,10.53
2022-12-03T00:03:05.022Z,10.65
2022-12-03T00:05:32.764Z,10.60
2022-12-03T00:08:03.945Z,10.40
2022-12-03T00:10:31.707Z,9.93
2022-12-03T00:12:59.920Z,11.47
2022-12-03T00:15:31.882Z,11.93
2022-12-03T00:18:01.489Z,11.77
2022-12-03T00:20:30.047Z,11.70
2022-12-03T00:22:58.516Z,10.43
2022-12-03T00:25:29.491Z,11.17
2022-12-03T00:27:57.903Z,10.57
2022-12-03T00:30:25.530Z,10.60
2022-12-03T00:32:54.160Z,12.15
2022-12-03T00:35:26.003Z,10.48
2022-12-03T00:37:53.813Z,11.17
2022-12-03T00:40:21.225Z,10.43
2022-12-03T00:42:52.335Z,10.73
2022-12-03T00:45:19.950Z,10.48
2022-12-03T00:47:53.839Z,11.40
2022-12-03T00:50:23.890Z,10.47
2022-12-03T00:52:52.458Z,10.88
2022-12-03T00:55:19.682Z,10.98
2022-12-03T00:57:51.155Z,10.32
2022-12-03T01:00:19.998Z,10.73
2022-12-03T01:02:47.822Z,11.20
2022-12-03T01:05:16.899Z,11.57
2022-12-03T01:07:45.576Z,11.73
2022-12-03T01:10:14.728Z,10.63
2022-12-03T01:12:42.166Z,10.90
2022-12-03T01:15:14.443Z,10.87
2022-12-03T01:17:46.146Z,10.50
2022-12-03T01:20:14.119Z,11.60
2022-12-03T01:22:40.921Z,10.48
2022-12-03T01:25:10.100Z,10.70
2022-12-03T01:27:39.834Z,9.83
2022-12-03T01:30:08.771Z,10.50
2022-12-03T01:32:53.234Z,11.50
2022-12-03T01:35:24.932Z,9.85
2022-12-03T01:37:55.026Z,10.05
2022-12-03T01:40:22.590Z,10.07
2022-12-03T01:42:50.835Z,10.13
2022-12-03T01:45:23.566Z,10.85
2022-12-03T01:47:58.647Z,9.55
2022-12-03T01:50:34.197Z,8.30
2022-12-03T01:53:05.265Z,9.50
2022-12-03T01:55:33.017Z,9.70
2022-12-03T01:58:09.535Z,9.90
2022-12-03T02:00:37.287Z,10.48
2022-12-03T02:03:24.908Z,9.38
2022-12-03T02:05:53.530Z,9.40
2022-12-03T02:08:31.051Z,9.05
2022-12-03T02:11:03.818Z,9.98
2022-12-03T02:13:32.134Z,9.32
2022-12-03T02:15:59.568Z,10.50
2022-12-03T02:18:29.886Z,10.23
2022-12-03T02:21:10.374Z,9.35
2022-12-03T02:23:45.328Z,10.77
2022-12-03T02:26:14.382Z,9.38
2022-12-03T02:28:42.534Z,9.70
2022-12-03T02:31:14.273Z,10.73
2022-12-03T02:33:54.491Z,10.65
2022-12-03T02:36:22.281Z,9.93
2022-12-03T02:38:52.669Z,9.60
2022-12-03T02:41:22.762Z,10.30
2022-12-03T02:43:55.899Z,10.00
2022-12-03T02:46:23.844Z,10.00
2022-12-03T02:48:56.652Z,9.65
2022-12-03T02:51:24.213Z,10.60
2022-12-03T02:53:54.003Z,10.10
2022-12-03T02:56:28.000Z,9.70
2022-12-03T02:58:58.831Z,9.13
2022-12-03T03:01:25.913Z,8.07
2022-12-03T03:03:53.181Z,9.55
2022-12-03T03:06:21.048Z,9.55
2022-12-03T03:08:48.329Z,10.20
2022-12-03T03:11:15.052Z,9.20
2022-12-03T03:13:43.630Z,9.90
2022-12-03T03:16:10.683Z,9.45
2022-12-03T03:18:37.520Z,9.23
2022-12-03T03:21:05.117Z,9.60
2022-12-03T03:23:31.912Z,9.40
2022-12-03T03:26:01.636Z,8.38
2022-12-03T03:28:29.855Z,8.70
2022-12-03T03:30:58.839Z,8.80
2022-12-03T03:33:25.499Z,9.97
2022-12-03T03:35:53.085Z,8.93
2022-12-03T03:38:22.205Z,8.50
2022-12-03T03:40:50.787Z,9.75
2022-12-03T03:43:17.879Z,8.77
2022-12-03T03:45:44.801Z,9.80
2022-12-03T03:48:13.852Z,9.27
2022-12-03T03:50:42.044Z,8.30
2022-12-03T03:53:09.670Z,8.95
2022-12-03T03:55:36.426Z,9.90
2022-12-03T03:58:03.331Z,9.23
2022-12-03T04:00:30.632Z,9.40
2022-12-03T04:02:57.277Z,9.25
2022-12-03T04:05:25.850Z,9.07
2022-12-03T04:07:52.591Z,9.88
2022-12-03T04:10:19.346Z,9.10
2022-12-03T04:12:45.959Z,10.20
2022-12-03T04:15:12.673Z,9.32
2022-12-03T04:17:39.418Z,9.25
2022-12-03T04:20:06.831Z,9.55
2022-12-03T04:22:34.930Z,9.43
2022-12-03T04:25:01.621Z,9.50
2022-12-03T04:27:28.316Z,9.65
2022-12-03T04:29:55.017Z,9.90
2022-12-03T04:32:21.707Z,8.77
2022-12-03T04:34:48.427Z,9.57
2022-12-03T04:37:15.217Z,10.13
2022-12-03T04:39:43.548Z,10.05
2022-12-03T04:42:10.234Z,10.65
2022-12-03T04:44:37.103Z,10.93
2022-12-03T04:47:06.515Z,10.80
2022-12-03T04:49:34.256Z,10.93
2022-12-03T04:52:00.998Z,11.02
2022-12-03T04:54:28.048Z,11.65
2022-12-03T04:56:56.494Z,10.23
2022-12-03T04:59:23.244Z,11.17
2022-12-03T05:01:50.037Z,10.07
2022-12-03T05:04:16.813Z,10.93
2022-12-03T05:06:43.823Z,10.70
2022-12-03T05:09:10.661Z,11.38
2022-12-03T05:11:37.382Z,11.07
2022-12-03T05:14:05.843Z,10.30
2022-12-03T05:16:32.638Z,11.63
2022-12-03T05:18:59.456Z,10.75
2022-12-03T05:21:26.119Z,10.55
2022-12-03T05:23:52.789Z,10.10
2022-12-03T05:26:19.464Z,10.88
2022-12-03T05:28:46.198Z,11.38
2022-12-03T05:31:14.329Z,11.32
2022-12-03T05:33:44.217Z,11.00
2022-12-03T05:36:11.534Z,11.03
2022-12-03T05:38:38.490Z,11.20
2022-12-03T05:41:05.668Z,11.65
2022-12-03T05:43:32.520Z,11.02
2022-12-03T05:45:59.260Z,11.63
2022-12-03T05:48:27.316Z,11.57
2022-12-03T05:50:53.982Z,10.45
2022-12-03T05:53:20.682Z,11.85
2022-12-03T05:55:47.399Z,11.18
2022-12-03T05:58:14.087Z,10.88
2022-12-03T06:00:43.055Z,11.23
2022-12-03T06:03:10.384Z,11.18
2022-12-03T06:05:38.603Z,11.50
2022-12-03T06:08:05.376Z,12.13
2022-12-03T06:10:32.186Z,11.38
2022-12-03T06:12:58.831Z,10.70
2022-12-03T06:15:25.506Z,11.95
2022-12-03T06:17:52.179Z,10.48
2022-12-03T06:20:20.643Z,12.68
2022-12-03T06:22:49.550Z,11.40
2022-12-03T06:25:16.708Z,11.37
2022-12-03T06:27:43.438Z,10.95
2022-12-03T06:30:12.092Z,11.15
2022-12-03T06:32:38.780Z,11.77
2022-12-03T06:35:05.915Z,11.27
2022-12-03T06:37:32.605Z,11.57
2022-12-03T06:40:00.611Z,10.98
2022-12-03T06:42:27.366Z,10.85
2022-12-03T06:44:54.311Z,10.18
2022-12-03T06:47:21.238Z,11.45
2022-12-03T06:49:47.924Z,10.50
2022-12-03T06:52:14.640Z,10.20
2022-12-03T06:54:41.294Z,11.07
2022-12-03T06:57:09.403Z,10.70
2022-12-03T06:59:36.164Z,11.48
2022-12-03T07:02:03.014Z,10.50
2022-12-03T07:04:29.772Z,11.73
2022-12-03T07:06:56.509Z,10.80
2022-12-03T07:09:23.473Z,11.15
2022-12-03T07:11:50.157Z,11.85
2022-12-03T07:14:18.308Z,10.70
2022-12-03T07:17:06.369Z,11.13
2022-12-03T07:19:33.375Z,11.05
2022-12-03T07:22:00.208Z,11.68
2022-12-03T07:24:27.231Z,11.45
2022-12-03T07:26:53.960Z,11.70
2022-12-03T07:29:22.081Z,10.93
2022-12-03T07:31:48.815Z,10.70
2022-12-03T07:34:15.635Z,11.07
2022-12-03T07:36:42.265Z,11.40
2022-12-03T07:39:08.989Z,11.43
2022-12-03T07:41:35.651Z,10.60
2022-12-03T07:44:02.296Z,10.57
2022-12-03T07:46:30.555Z,10.70
2022-12-03T07:48:57.301Z,10.10
2022-12-03T07:51:27.505Z,11.27
2022-12-03T07:53:58.688Z,10.75
2022-12-03T07:56:25.379Z,11.32
2022-12-03T07:58:52.064Z,10.38
2022-12-03T08:01:18.786Z,10.80
2022-12-03T08:03:46.941Z,10.30
2022-12-03T08:06:13.625Z,10.57
2022-12-03T08:08:40.360Z,10.73
2022-12-03T08:11:10.783Z,10.30
2022-12-03T08:13:39.654Z,10.27
2022-12-03T08:16:15.514Z,10.33
2022-12-03T08:18:42.274Z,10.73
2022-12-03T08:21:11.573Z,11.40
2022-12-03T08:23:38.273Z,11.13
2022-12-03T08:26:12.822Z,11.05
2022-12-03T08:28:39.547Z,10.20
2022-12-03T08:31:15.045Z,11.23
2022-12-03T08:33:41.782Z,10.70
2022-12-03T08:36:16.502Z,10.82
2022-12-03T08:38:48.432Z,10.90
2022-12-03T08:41:16.470Z,10.90
2022-12-03T08:43:43.226Z,11.38
2022-12-03T08:46:13.257Z,10.45
2022-12-03T08:48:44.055Z,10.43
2022-12-03T08:51:21.418Z,9.90
2022-12-03T08:53:50.064Z,11.23
2022-12-03T08:56:21.555Z,11.13
2022-12-03T08:58:51.621Z,10.18
2022-12-03T09:01:40.467Z,10.60
2022-12-03T09:04:25.336Z,10.32
2022-12-03T09:06:54.477Z,9.80
2022-12-03T09:09:21.333Z,10.63
2022-12-03T09:11:48.066Z,10.23
2022-12-03T09:14:18.456Z,10.80
2022-12-03T09:16:45.735Z,10.40
2022-12-03T09:19:12.554Z,10.97
2022-12-03T09:21:39.230Z,10.43
2022-12-03T09:24:07.754Z,10.18
2022-12-03T09:26:34.654Z,11.68
2022-12-03T09:29:01.292Z,10.40
2022-12-03T09:31:28.031Z,11.23
2022-12-03T09:33:54.769Z,10.48
2022-12-03T09:36:21.594Z,10.98
2022-12-03T09:38:48.454Z,10.65
2022-12-03T09:41:16.565Z,10.68
2022-12-03T09:44:03.235Z,10.70
2022-12-03T09:46:30.764Z,10.10
2022-12-03T09:48:57.677Z,10.63
2022-12-03T09:51:29.736Z,9.80
2022-12-03T09:53:58.461Z,9.80
2022-12-03T09:56:26.701Z,10.70
2022-12-03T09:58:53.473Z,10.32
2022-12-03T10:01:20.450Z,10.82
2022-12-03T10:03:50.035Z,10.38
2022-12-03T10:06:20.142Z,10.30
2022-12-03T10:08:49.095Z,11.03
2022-12-03T10:11:17.105Z,9.10
2022-12-03T10:13:46.101Z,10.65
2022-12-03T10:16:15.855Z,10.82
2022-12-03T10:18:45.513Z,10.05
2022-12-03T10:21:18.400Z,10.63
2022-12-03T10:23:46.470Z,10.75
2022-12-03T10:26:15.080Z,10.60
2022-12-03T10:28:43.517Z,10.30
2022-12-03T10:31:12.677Z,10.20
2022-12-03T10:33:41.726Z,9.50
2022-12-03T10:36:17.830Z,9.05
2022-12-03T10:39:05.091Z,9.85
2022-12-03T10:41:31.772Z,9.25
2022-12-03T10:44:12.355Z,9.85
2022-12-03T10:46:40.504Z,10.40
2022-12-03T10:49:15.002Z,7.93
2022-12-03T10:51:42.253Z,13.68
2022-12-03T10:54:17.165Z,10.75
2022-12-03T10:56:44.839Z,9.13
2022-12-03T10:59:16.080Z,8.87
2022-12-03T11:01:45.259Z,8.20
2022-12-03T11:04:19.512Z,9.07
2022-12-03T11:06:46.300Z,9.63
2022-12-03T11:09:19.959Z,8.25
2022-12-03T11:11:46.891Z,8.07
2022-12-03T11:14:18.085Z,7.40
2022-12-03T11:17:10.151Z,8.45
2022-12-03T11:19:45.721Z,8.13
2022-12-03T11:22:44.224Z,7.68
2022-12-03T11:25:47.050Z,7.70
2022-12-03T11:28:53.170Z,7.05
2022-12-03T11:31:38.857Z,6.75
2022-12-03T11:34:47.900Z,7.63
2022-12-03T11:37:28.373Z,7.40
2022-12-03T11:40:19.906Z,6.93
2022-12-03T11:42:47.487Z,6.15
2022-12-03T11:45:26.966Z,7.05
2022-12-03T11:48:04.726Z,6.75
2022-12-03T11:50:39.848Z,6.45
2022-12-03T11:53:15.361Z,6.40
2022-12-03T11:55:44.107Z,5.50
2022-12-03T11:58:16.711Z,5.75
2022-12-03T12:00:49.456Z,6.00
2022-12-03T12:03:23.488Z,5.25
2022-12-03T12:06:04.164Z,5.00
2022-12-03T12:08:33.153Z,5.78
2022-12-03T12:11:00.177Z,8.40
2022-12-03T12:13:48.222Z,7.40
2022-12-03T12:16:35.968Z,7.47
2022-12-03T12:19:27.517Z,5.17
2022-12-03T12:21:54.637Z,5.13
2022-12-03T12:24:35.532Z,5.43
2022-12-03T12:27:04.605Z,5.63
2022-12-03T12:29:31.547Z,5.80
2022-12-03T12:32:02.440Z,6.00
2022-12-03T12:34:29.422Z,6.30
2022-12-03T12:36:59.782Z,6.00
2022-12-03T12:39:27.019Z,6.68
2022-12-03T12:41:55.283Z,6.00
2022-12-03T12:44:22.493Z,5.70
2022-12-03T12:46:51.786Z,6.10
2022-12-03T12:49:18.609Z,5.63
2022-12-03T12:51:46.514Z,7.15
2022-12-03T12:54:15.673Z,10.32
2022-12-03T12:56:44.113Z,8.67
2022-12-03T12:59:15.401Z,8.57
2022-12-03T13:01:44.474Z,6.70
2022-12-03T13:04:12.759Z,5.95
2022-12-03T13:06:40.123Z,5.30
2022-12-03T13:09:12.821Z,5.87
2022-12-03T13:11:40.595Z,5.80
2022-12-03T13:14:15.659Z,5.00
2022-12-03T13:16:44.991Z,4.93
2022-12-03T13:19:30.042Z,5.22
2022-12-03T13:21:58.472Z,4.90
2022-12-03T13:24:30.243Z,4.82
2022-12-03T13:26:57.789Z,4.55
2022-12-03T13:29:27.170Z,5.63
2022-12-03T13:31:55.798Z,4.55
2022-12-03T13:34:24.070Z,4.80
2022-12-03T13:36:57.418Z,4.22
2022-12-03T13:39:29.743Z,5.10
2022-12-03T13:41:57.972Z,5.10
2022-12-03T13:44:27.368Z,4.40
2022-12-03T13:46:54.012Z,4.53
2022-12-03T13:49:23.607Z,5.35
2022-12-03T13:51:51.157Z,4.95
2022-12-03T13:54:21.312Z,4.60
2022-12-03T13:56:48.780Z,4.20
2022-12-03T13:59:15.988Z,7.50
2022-12-03T14:01:44.502Z,6.43
2022-12-03T14:04:11.825Z,5.38
2022-12-03T14:06:38.479Z,5.20
2022-12-03T14:09:05.415Z,5.28
2022-12-03T14:11:32.051Z,5.13
2022-12-03T14:13:58.782Z,4.85
2022-12-03T14:16:25.568Z,5.10
2022-12-03T14:18:53.699Z,5.60
2022-12-03T14:21:20.485Z,5.40
2022-12-03T14:23:47.184Z,5.97
2022-12-03T14:26:13.853Z,5.68
2022-12-03T14:28:40.545Z,6.03
2022-12-03T14:31:07.240Z,5.15
2022-12-03T14:33:34.138Z,5.88
2022-12-03T14:36:02.148Z,5.40
2022-12-03T14:38:28.880Z,4.78
2022-12-03T14:40:55.567Z,5.30
2022-12-03T14:43:22.395Z,4.80
2022-12-03T14:45:49.200Z,5.15
2022-12-03T14:48:15.904Z,4.80
2022-12-03T14:50:42.579Z,4.93
2022-12-03T14:53:10.615Z,5.93
2022-12-03T14:55:37.345Z,4.68
2022-12-03T14:58:03.981Z,4.97
2022-12-03T15:00:30.685Z,4.40
2022-12-03T15:02:57.399Z,4.63
2022-12-03T15:05:28.594Z,3.97
2022-12-03T15:07:55.876Z,4.10
2022-12-03T15:10:24.013Z,3.90
2022-12-03T15:12:50.704Z,3.87
2022-12-03T15:15:17.385Z,3.85
2022-12-03T15:17:44.154Z,3.75
2022-12-03T15:20:11.920Z,3.80
2022-12-03T15:22:38.623Z,4.25
2022-12-03T15:25:06.199Z,3.77
2022-12-03T15:27:34.306Z,3.65
2022-12-03T15:30:01.075Z,3.55
2022-12-03T15:32:27.744Z,3.55
2022-12-03T15:34:54.414Z,3.75
2022-12-03T15:37:21.140Z,3.70
2022-12-03T15:39:48.828Z,4.00
2022-12-03T15:42:15.719Z,4.80
2022-12-03T15:44:43.804Z,5.55
2022-12-03T15:47:10.538Z,5.80
2022-12-03T15:49:37.251Z,4.60
2022-12-03T15:52:04.136Z,4.78
2022-12-03T15:54:30.788Z,4.40
2022-12-03T15:56:57.772Z,4.47
2022-12-03T15:59:24.579Z,5.30
2022-12-03T16:01:52.708Z,5.10
2022-12-03T16:04:19.464Z,4.85
2022-12-03T16:06:46.126Z,4.93
2022-12-03T16:09:12.760Z,14.38
2022-12-03T16:11:39.471Z,6.63
2022-12-03T16:14:06.168Z,6.00
2022-12-03T16:16:32.979Z,4.80
2022-12-03T16:19:01.099Z,5.10
2022-12-03T16:21:27.829Z,5.60
2022-12-03T16:23:54.649Z,5.05
2022-12-03T16:26:21.442Z,5.30
2022-12-03T16:28:48.242Z,5.20
2022-12-03T16:31:14.940Z,4.85
2022-12-03T16:33:41.783Z,5.75
2022-12-03T16:36:10.195Z,5.63
2022-12-03T16:38:36.959Z,6.80
2022-12-03T16:41:03.596Z,10.68
2022-12-03T16:43:30.405Z,7.43
2022-12-03T16:45:57.136Z,8.10
2022-12-03T16:48:23.821Z,6.47
2022-12-03T16:50:50.598Z,5.60
2022-12-03T16:53:18.897Z,5.70
2022-12-03T16:55:45.616Z,5.65
2022-12-03T16:58:12.360Z,6.13
2022-12-03T17:00:39.625Z,5.57
2022-12-03T17:03:06.339Z,5.43
2022-12-03T17:05:33.077Z,5.18
2022-12-03T17:07:59.841Z,5.20
2022-12-03T17:10:28.053Z,6.05
2022-12-03T17:13:09.390Z,6.07
2022-12-03T17:15:37.211Z,5.20
2022-12-03T17:18:06.292Z,6.03
2022-12-03T17:20:33.660Z,5.80
2022-12-03T17:23:00.585Z,5.25
2022-12-03T17:25:29.026Z,5.47
2022-12-03T17:27:55.721Z,5.87
2022-12-03T17:30:22.577Z,6.43
2022-12-03T17:32:49.282Z,6.45
2022-12-03T17:35:16.417Z,8.30
2022-12-03T17:37:43.122Z,8.60
2022-12-03T17:40:12.137Z,7.40
2022-12-03T17:42:40.190Z,6.43
2022-12-03T17:45:08.199Z,5.65
2022-12-03T17:47:34.945Z,5.32
2022-12-03T17:50:01.636Z,5.40
2022-12-03T17:52:28.522Z,5.40
2022-12-03T17:55:10.466Z,5.22
2022-12-03T17:57:40.086Z,7.85
2022-12-03T18:00:11.272Z,6.53
2022-12-03T18:02:37.949Z,5.70
2022-12-03T18:05:05.103Z,5.57
2022-12-03T18:07:31.945Z,5.85
2022-12-03T18:09:58.792Z,5.45
2022-12-03T18:12:25.622Z,5.25
2022-12-03T18:14:53.699Z,5.10
2022-12-03T18:17:20.333Z,4.97
2022-12-03T18:19:47.011Z,5.70
2022-12-03T18:22:13.681Z,4.90
2022-12-03T18:24:40.829Z,9.27
2022-12-03T18:27:07.702Z,5.97
2022-12-03T18:29:34.417Z,5.93
2022-12-03T18:32:02.536Z,5.32
2022-12-03T18:34:29.243Z,7.40
2022-12-03T18:36:55.998Z,6.57
2022-12-03T18:39:26.485Z,6.30
2022-12-03T18:41:53.772Z,6.47
2022-12-03T18:44:21.170Z,6.15
2022-12-03T18:46:55.401Z,6.25
2022-12-03T18:49:23.620Z,6.05
2022-12-03T18:51:55.863Z,5.72
2022-12-03T18:54:26.359Z,8.67
2022-12-03T18:56:53.047Z,8.43
2022-12-03T18:59:19.757Z,6.93
2022-12-03T19:01:46.580Z,5.90
2022-12-03T19:04:13.378Z,6.50
2022-12-03T19:06:41.433Z,8.87
2022-12-03T19:09:08.321Z,10.00
2022-12-03T19:11:35.616Z,7.18
2022-12-03T19:14:03.819Z,5.88
2022-12-03T19:16:30.704Z,6.05
2022-12-03T19:18:57.779Z,5.83
2022-12-03T19:21:25.696Z,6.18
2022-12-03T19:24:22.773Z,5.90
2022-12-03T19:26:43.269Z,5.70
2022-12-03T19:29:10.002Z,5.40
2022-12-03T19:31:36.838Z,6.73
2022-12-03T19:34:03.570Z,5.88
2022-12-03T19:36:31.260Z,6.03
2022-12-03T19:38:59.955Z,5.95
2022-12-03T19:41:28.184Z,5.70
2022-12-03T19:43:56.637Z,6.40
2022-12-03T19:46:25.550Z,6.50
2022-12-03T19:48:53.644Z,6.25
2022-12-03T19:51:34.149Z,5.38
2022-12-03T19:54:03.228Z,5.63
2022-12-03T19:56:30.000Z,6.10
2022-12-03T19:58:56.979Z,6.10
2022-12-03T20:01:26.217Z,6.50
2022-12-03T20:03:55.799Z,5.40
2022-12-03T20:06:24.805Z,6.47
2022-12-03T20:08:54.708Z,6.70
2022-12-03T20:11:25.249Z,6.13
2022-12-03T20:13:53.733Z,5.68
2022-12-03T20:16:20.488Z,6.22
2022-12-03T20:18:48.740Z,6.38
2022-12-03T20:21:17.537Z,5.80
2022-12-03T20:23:44.643Z,6.53
2022-12-03T20:26:13.859Z,6.38
2022-12-03T20:28:42.337Z,7.13
2022-12-03T20:31:10.498Z,7.97
2022-12-03T20:33:37.622Z,12.43
2022-12-03T20:36:05.027Z,9.45
2022-12-03T20:38:31.954Z,9.05
2022-12-03T20:41:00.969Z,6.88
2022-12-03T20:43:27.709Z,6.53
2022-12-03T20:46:01.077Z,5.57
2022-12-03T20:48:29.554Z,5.72
2022-12-03T20:50:56.210Z,5.35
2022-12-03T20:53:25.443Z,5.50
2022-12-03T20:55:55.410Z,5.85
2022-12-03T20:58:22.268Z,6.47
2022-12-03T21:00:49.085Z,6.47
2022-12-03T21:03:17.469Z,6.60
2022-12-03T21:05:44.363Z,5.88
2022-12-03T21:08:11.258Z,6.38
2022-12-03T21:10:38.948Z,7.00
2022-12-03T21:13:05.795Z,6.82
2022-12-03T21:15:32.598Z,6.32
2022-12-03T21:17:59.328Z,6.75
2022-12-03T21:20:27.472Z,5.97
2022-12-03T21:22:54.260Z,6.37
2022-12-03T21:25:20.883Z,6.57
2022-12-03T21:27:47.650Z,6.00
2022-12-03T21:30:14.852Z,6.72
2022-12-03T21:32:41.525Z,6.45
2022-12-03T21:35:08.677Z,6.57
2022-12-03T21:37:36.758Z,6.53
2022-12-03T21:40:03.961Z,6.13
2022-12-03T21:42:36.636Z,7.10
2022-12-03T21:45:04.559Z,6.20
2022-12-03T21:47:36.884Z,6.03
2022-12-03T21:50:06.268Z,5.97
2022-12-03T21:52:33.820Z,6.03
2022-12-03T21:55:01.882Z,6.50
2022-12-03T21:57:28.586Z,5.57
2022-12-03T21:59:55.525Z,6.23
2022-12-03T22:02:22.521Z,5.93
2022-12-03T22:04:50.441Z,6.43
2022-12-03T22:07:17.270Z,5.97
2022-12-03T22:09:43.963Z,5.63
2022-12-03T22:12:12.047Z,5.87
2022-12-03T22:14:38.737Z,6.05
2022-12-03T22:17:07.177Z,5.70
2022-12-03T22:19:34.016Z,5.93
2022-12-03T22:22:00.772Z,7.15
2022-12-03T22:24:27.461Z,5.83
2022-12-03T22:26:54.180Z,5.80
2022-12-03T22:29:22.353Z,6.05
2022-12-03T22:31:49.074Z,6.05
2022-12-03T22:34:15.789Z,5.50
2022-12-03T22:36:42.541Z,5.67
2022-12-03T22:39:09.281Z,6.18
2022-12-03T22:41:36.043Z,5.43
2022-12-03T22:44:02.725Z,6.03
2022-12-03T22:46:31.062Z,6.18
2022-12-03T22:49:01.826Z,5.67
2022-12-03T22:51:31.796Z,6.03
2022-12-03T22:54:00.738Z,6.00
2022-12-03T22:56:28.950Z,6.07
2022-12-03T22:58:56.181Z,5.78
2022-12-03T23:01:24.625Z,5.37
2022-12-03T23:03:52.782Z,6.18
2022-12-03T23:06:20.251Z,5.55
2022-12-03T23:08:47.013Z,6.05
2022-12-03T23:11:13.838Z,5.70
2022-12-03T23:13:40.634Z,6.20
2022-12-03T23:16:09.894Z,5.38
2022-12-03T23:18:36.575Z,5.72
2022-12-03T23:21:04.722Z,6.20
2022-12-03T23:23:31.417Z,5.97
2022-12-03T23:25:59.171Z,5.90
2022-12-03T23:28:26.498Z,6.00
2022-12-03T23:30:53.482Z,5.13
2022-12-03T23:33:20.726Z,5.35
2022-12-03T23:35:47.455Z,5.03
2022-12-03T23:38:15.588Z,4.83
2022-12-03T23:40:47.734Z,5.97
2022-12-03T23:43:17.365Z,5.57
2022-12-03T23:45:44.051Z,5.32
2022-12-03T23:48:10.764Z,5.75
2022-12-03T23:50:38.725Z,6.13
2022-12-03T23:53:05.416Z,5.57
2022-12-03T23:55:33.424Z,5.75
2022-12-03T23:58:00.147Z,4.93
